Agat, GU

1:14 PM ChST on September 16, 2014 (GMT +1000)
Ordot Dump | Change Station
CLOSE
Current Station
Personal Weather Station
Location: Chalan Pago Ordot,
Elevation: 282 ft
Nearby Weather Stations

Elev 282 ft 13.44 °N, 144.75 °E | Updated 3 seconds ago

Rain
Rain
78.1 °F
Feels Like 81 °F
N
2.0
Wind Variable Wind from SW
Gusts 5.0 mph

Today
High -- | Low -- °F
--% Chance of Precip.
Yesterday
High -- | Low -- °F
Precip. -- in
6:10 AM 6:22 PM
Waning Gibbous, 50% visible
Pressure 29.75 in
Visibility 10.0 miles
Clouds Scattered Clouds 3000 ft
Mostly Cloudy 4900 ft
Mostly Cloudy 7000 ft
Heat Index 81 °F
Dew Point 77 °F
Humidity 97%
Rainfall 0.76 in
Snow Depth Not available.
UV 9 out of 12
Pollen Not available.
Air Quality Not available.
Flu Activity Not available.
METAR PGUM 160254Z 13005KT 10SM SCT030 BKN049 BKN070 26/24 A2977 RMK AO2 RAE49 SLP073 P0010 60025 T02610244 58007

More Conditions Fewer Conditions

Pressure 29.75 in
Visibility 10.0 miles
Clouds Scattered Clouds 3000 ft
Mostly Cloudy 4900 ft
Mostly Cloudy 7000 ft
Heat Index 81 °F
Dew Point 77 °F
Humidity 97%
Rainfall 0.76 in
Snow Depth Not available.
UV 9 out of 12
Pollen Not available.
Air Quality Not available.
Flu Activity Not available.
METAR PGUM 160254Z 13005KT 10SM SCT030 BKN049 BKN070 26/24 A2977 RMK AO2 RAE49 SLP073 P0010 60025 T02610244 58007

More Conditions Fewer Conditions

10-Day Weather Forecast

Almanac

Astronomy

Sep. 16, 2014 Rise Set
Actual Time 6:10 AM ChST 6:22 PM ChST
Civil Twilight 5:49 AM ChST 6:43 PM ChST
Nautical Twilight 5:24 AM ChST 7:08 PM ChST
Astronomical Twilight 4:59 AM ChST 7:33 PM ChST
Moon No Moon Rise 12:31 PM ChST
Length of Visible Light 12h 54m
Length of Day
12h 11m
Tomorrow will be 0m 44s shorter.
Waning Gibbous, 50% of the Moon is Illuminated
Sep 15
Waning Gibbous
Sep 24
New
Oct 1
First Quarter
Oct 8
Full
Oct 15
Last Quarter

Community

WunderPhotos

Upload Photos

1,753,694 photos uploaded!

Nearby

Snow Depth

Station Depth Elevation
No new snow has been reported.

Earthquake Activity

City Distance Mag. Time & Date
No recent earthquake activity has been reported nearby.
Minimum magnitude displayed is 2.5.

Coastal Water Temperatures

Place Temperature
No Stations Reporting

Nearby Weather Stations